Time;durP1;ratioP1;P1;durP2;ratioP2;P2;SDS_P1;SDS_P2;PMS_P1;PMS_P2;Temp;Humidity;BMP_temperature;BMP_pressure;BME280_temperature;BME280_humidity;BME280_pressure;Samples;Min_cycle;Max_cycle;Signal;HPM_P1;HPM_P2
2024/01/11 00:00:16;;;;;;;;;;;-4.60;1.00;;;;;;5035086;28;20353;-78
2024/01/11 00:02:41;;;;;;;;;;;-4.50;1.00;;;;;;5053734;28;19999;-75
2024/01/11 00:05:14;;;;;;;;;;;-4.50;1.00;;;;;;5054125;28;20047;-75
2024/01/11 00:07:50;;;;;;;;;;;-4.50;1.00;;;;;;5053423;28;20444;-75
2024/01/11 00:10:16;;;;;;;;;;;-4.50;1.00;;;;;;5037354;28;19999;-75
2024/01/11 00:12:44;;;;;;;;;;;-4.50;1.00;;;;;;5041148;28;19986;-75
2024/01/11 00:15:20;;;;;;;;;;;-4.50;1.00;;;;;;5035166;28;21362;-74
2024/01/11 00:17:45;;;;;;;;;;;-4.50;1.00;;;;;;5055452;28;19908;-77
2024/01/11 00:20:11;;;;;;;;;;;-4.50;1.00;;;;;;5050540;28;19941;-76
2024/01/11 00:22:37;;;;;;;;;;;-4.50;1.00;;;;;;5034885;28;19913;-76
2024/01/11 00:25:03;;;;;;;;;;;-4.50;1.00;;;;;;5047001;28;19932;-76
2024/01/11 00:27:29;;;;;;;;;;;-4.50;1.00;;;;;;5043838;28;19913;-76
2024/01/11 00:29:55;;;;;;;;;;;-4.50;1.00;;;;;;5040390;28;19905;-76
2024/01/11 00:32:50;;;;;;;;;;;-4.40;1.00;;;;;;5041937;28;19909;-76
2024/01/11 00:35:38;;;;;;;;;;;-4.40;1.00;;;;;;5034536;28;19916;-76
2024/01/11 00:38:08;;;;;;;;;;;-4.40;1.00;;;;;;5038186;28;19909;-76
2024/01/11 00:40:33;;;;;;;;;;;-4.40;1.00;;;;;;5046070;28;19913;-76
2024/01/11 00:42:59;;;;;;;;;;;-4.30;1.00;;;;;;5034755;28;19905;-76
2024/01/11 00:45:26;;;;;;;;;;;-4.30;1.00;;;;;;5044432;28;19915;-76
2024/01/11 00:47:51;;;;;;;;;;;-4.30;1.00;;;;;;5051298;28;19913;-78
2024/01/11 00:50:20;;;;;;;;;;;-4.20;1.00;;;;;;5048772;28;19909;-76
2024/01/11 00:53:02;;;;;;;;;;;-4.20;1.00;;;;;;5051413;28;19987;-76
2024/01/11 00:55:29;;;;;;;;;;;-4.20;1.00;;;;;;5049034;28;20284;-76
2024/01/11 00:58:26;;;;;;;;;;;-4.20;1.00;;;;;;5045830;28;19913;-76
2024/01/11 01:00:56;;;;;;;;;;;-4.20;1.00;;;;;;5046969;28;19915;-76
2024/01/11 01:03:22;;;;;;;;;;;-4.10;1.00;;;;;;5043305;28;19909;-76
2024/01/11 01:05:56;;;;;;;;;;;-4.10;1.00;;;;;;5034394;28;20281;-76
2024/01/11 01:08:26;;;;;;;;;;;-4.10;1.00;;;;;;5046267;28;19956;-77
2024/01/11 01:10:51;;;;;;;;;;;-4.10;1.00;;;;;;5044866;28;19912;-77
2024/01/11 01:13:26;;;;;;;;;;;-4.00;1.00;;;;;;5052019;28;19971;-77
2024/01/11 01:16:02;;;;;;;;;;;-4.00;1.00;;;;;;5043941;28;19940;-77
2024/01/11 01:18:27;;;;;;;;;;;-4.00;1.00;;;;;;5050918;28;20295;-75
2024/01/11 01:20:53;;;;;;;;;;;-3.90;1.00;;;;;;5038604;28;19912;-75
2024/01/11 01:23:20;;;;;;;;;;;-3.90;1.00;;;;;;5040098;28;19913;-75
2024/01/11 01:25:46;;;;;;;;;;;-3.90;1.00;;;;;;5034638;28;19951;-75
2024/01/11 01:28:14;;;;;;;;;;;-3.90;1.00;;;;;;5067671;28;19956;-75
2024/01/11 01:30:40;;;;;;;;;;;-3.90;1.00;;;;;;5034106;28;19915;-75
2024/01/11 01:33:08;;;;;;;;;;;-3.80;1.00;;;;;;5044893;28;19987;-75
2024/01/11 01:35:44;;;;;;;;;;;-3.90;1.00;;;;;;5044867;28;19909;-75
2024/01/11 01:38:09;;;;;;;;;;;-3.90;1.00;;;;;;5037231;28;19911;-75
2024/01/11 01:40:38;;;;;;;;;;;-3.90;1.00;;;;;;5041367;28;19904;-75
2024/01/11 01:43:06;;;;;;;;;;;-3.90;1.00;;;;;;5048696;28;19915;-76
2024/01/11 01:45:32;;;;;;;;;;;-3.80;1.00;;;;;;5054005;28;19954;-75
2024/01/11 01:48:14;;;;;;;;;;;-3.90;1.00;;;;;;5042441;28;19913;-76
2024/01/11 01:50:50;;;;;;;;;;;-3.90;1.00;;;;;;5035585;28;19909;-76
2024/01/11 01:53:44;;;;;;;;;;;-3.90;1.00;;;;;;5033880;28;19913;-77
2024/01/11 01:56:14;;;;;;;;;;;-4.00;1.00;;;;;;5051292;28;19909;-77
2024/01/11 01:58:42;;;;;;;;;;;-4.00;1.00;;;;;;5037697;28;19913;-76
2024/01/11 02:01:27;;;;;;;;;;;-4.10;1.00;;;;;;5034855;28;19916;-76
2024/01/11 02:04:02;;;;;;;;;;;-4.10;1.00;;;;;;5044645;28;19970;-75
2024/01/11 02:06:38;;;;;;;;;;;-4.20;1.00;;;;;;5049912;28;19905;-75
2024/01/11 02:09:09;;;;;;;;;;;-4.20;1.00;;;;;;5032677;28;19955;-75
2024/01/11 02:11:38;;;;;;;;;;;-4.20;1.00;;;;;;5042698;28;19911;-75
2024/01/11 02:14:14;;;;;;;;;;;-4.30;1.00;;;;;;5056811;28;19908;-75
2024/01/11 02:16:39;;;;;;;;;;;-4.30;1.00;;;;;;5041416;28;20004;-75
2024/01/11 02:19:06;;;;;;;;;;;-4.30;1.00;;;;;;5039603;28;19952;-75
2024/01/11 02:21:46;;;;;;;;;;;-4.30;1.00;;;;;;5034710;28;19959;-74
2024/01/11 02:24:20;;;;;;;;;;;-4.30;1.00;;;;;;5033635;28;19927;-75
2024/01/11 02:27:15;;;;;;;;;;;-4.30;1.00;;;;;;5038676;28;19952;-74
2024/01/11 02:29:50;;;;;;;;;;;-4.30;1.00;;;;;;5024763;28;20307;-75
2024/01/11 02:32:20;;;;;;;;;;;-4.30;1.00;;;;;;5033615;28;20005;-76
2024/01/11 02:34:46;;;;;;;;;;;-4.30;1.00;;;;;;5022006;28;19917;-76
2024/01/11 02:37:14;;;;;;;;;;;-4.30;1.00;;;;;;5021979;28;19909;-77
2024/01/11 02:39:56;;;;;;;;;;;-4.30;1.00;;;;;;5031289;28;19912;-77
2024/01/11 02:42:26;;;;;;;;;;;-4.40;1.00;;;;;;5031083;28;20411;-77
2024/01/11 02:44:52;;;;;;;;;;;-4.40;1.00;;;;;;5017858;28;19909;-77
2024/01/11 02:47:18;;;;;;;;;;;-4.50;1.00;;;;;;5024128;28;19913;-75
2024/01/11 02:49:44;;;;;;;;;;;-4.50;1.00;;;;;;5031252;28;19911;-75
2024/01/11 02:52:14;;;;;;;;;;;-4.50;1.00;;;;;;5021635;28;19909;-75
2024/01/11 02:54:56;;;;;;;;;;;-4.50;1.00;;;;;;5017915;28;20035;-75
2024/01/11 02:57:32;;;;;;;;;;;-4.60;1.00;;;;;;5026583;28;19981;-75
2024/01/11 03:00:14;;;;;;;;;;;-4.60;1.00;;;;;;5029682;28;19909;-75
2024/01/11 03:02:39;;;;;;;;;;;-4.60;1.00;;;;;;5027356;28;19916;-75
2024/01/11 03:05:20;;;;;;;;;;;-4.70;1.00;;;;;;5034442;28;19905;-75
2024/01/11 03:07:50;;;;;;;;;;;-4.70;1.00;;;;;;5043782;28;20363;-75
2024/01/11 03:10:26;;;;;;;;;;;-4.80;1.00;;;;;;5055853;28;19944;-75
2024/01/11 03:13:02;;;;;;;;;;;-4.80;1.00;;;;;;5039655;28;19966;-75
2024/01/11 03:15:27;;;;;;;;;;;-4.80;1.00;;;;;;5039646;28;19909;-75
2024/01/11 03:17:56;;;;;;;;;;;-4.80;1.00;;;;;;5049386;28;19912;-76
2024/01/11 03:20:26;;;;;;;;;;;-4.80;1.00;;;;;;5049651;28;19913;-76
2024/01/11 03:22:56;;;;;;;;;;;-4.80;1.00;;;;;;5048190;28;19912;-76
2024/01/11 03:25:38;;;;;;;;;;;-4.90;1.00;;;;;;5051716;28;19988;-77
2024/01/11 03:28:14;;;;;;;;;;;-4.90;1.00;;;;;;5035908;28;19913;-77
2024/01/11 03:30:50;;;;;;;;;;;-5.00;1.00;;;;;;5042940;28;20249;-76
2024/01/11 03:33:15;;;;;;;;;;;-5.00;1.00;;;;;;5036905;28;19916;-74
2024/01/11 03:35:43;;;;;;;;;;;-5.00;1.00;;;;;;5036017;28;19904;-75
2024/01/11 03:38:09;;;;;;;;;;;-5.00;1.00;;;;;;5042954;28;19987;-75
2024/01/11 03:40:44;;;;;;;;;;;-5.10;1.00;;;;;;5055926;28;19986;-75
2024/01/11 03:43:20;;;;;;;;;;;-5.10;1.00;;;;;;5049467;28;19915;-75
2024/01/11 03:45:56;;;;;;;;;;;-5.10;1.00;;;;;;5038053;28;21214;-75
2024/01/11 03:48:32;;;;;;;;;;;-5.20;1.00;;;;;;5041027;28;19920;-76
2024/01/11 03:51:03;;;;;;;;;;;-5.20;1.00;;;;;;5045577;28;19912;-76
2024/01/11 03:53:50;;;;;;;;;;;-5.20;1.00;;;;;;5045114;28;19905;-76
2024/01/11 03:56:26;;;;;;;;;;;-5.20;1.00;;;;;;5036563;28;19948;-77
2024/01/11 03:58:56;;;;;;;;;;;-5.30;1.00;;;;;;5051316;28;19915;-77
2024/01/11 04:01:26;;;;;;;;;;;-5.30;1.00;;;;;;5051156;28;19959;-77
2024/01/11 04:03:56;;;;;;;;;;;-5.40;1.00;;;;;;5048932;28;19912;-75
2024/01/11 04:06:26;;;;;;;;;;;-5.40;1.00;;;;;;5046653;28;19915;-75
2024/01/11 04:08:56;;;;;;;;;;;-5.40;1.00;;;;;;5049554;28;20331;-75
2024/01/11 04:11:22;;;;;;;;;;;-5.40;1.00;;;;;;5039245;28;19913;-75
2024/01/11 04:14:02;;;;;;;;;;;-5.40;1.00;;;;;;5049046;28;20272;-75
2024/01/11 04:16:28;;;;;;;;;;;-5.30;1.00;;;;;;5039937;28;20340;-75
2024/01/11 04:18:53;;;;;;;;;;;-5.30;1.00;;;;;;5047346;28;19909;-75
2024/01/11 04:21:22;;;;;;;;;;;-5.30;1.00;;;;;;5042687;28;20051;-75
2024/01/11 04:23:47;;;;;;;;;;;-5.20;1.00;;;;;;5043916;28;19975;-75
2024/01/11 04:26:13;;;;;;;;;;;-5.20;1.00;;;;;;5041484;28;20380;-75
2024/01/11 04:28:39;;;;;;;;;;;-5.20;1.00;;;;;;5037489;28;19913;-75
2024/01/11 04:31:08;;;;;;;;;;;-5.10;1.00;;;;;;5048603;28;19909;-75
2024/01/11 04:33:34;;;;;;;;;;;-5.10;1.00;;;;;;5050435;28;20395;-75
2024/01/11 04:35:59;;;;;;;;;;;-5.10;1.00;;;;;;5052834;28;19905;-75
2024/01/11 04:38:25;;;;;;;;;;;-5.00;1.00;;;;;;5034995;28;19909;-75
2024/01/11 04:40:50;;;;;;;;;;;-5.00;1.00;;;;;;5048118;28;19917;-75
2024/01/11 04:43:20;;;;;;;;;;;-5.00;1.00;;;;;;5034757;28;19908;-75
2024/01/11 04:45:56;;;;;;;;;;;-5.00;1.00;;;;;;5034790;28;19909;-75
2024/01/11 04:48:26;;;;;;;;;;;-5.00;1.00;;;;;;5037845;28;19948;-76
2024/01/11 04:51:02;;;;;;;;;;;-4.90;1.00;;;;;;5036685;28;19908;-76
2024/01/11 04:53:28;;;;;;;;;;;-4.90;1.00;;;;;;5034634;28;20353;-77
2024/01/11 04:56:14;;;;;;;;;;;-4.90;1.00;;;;;;5046389;28;19916;-76
2024/01/11 04:58:44;;;;;;;;;;;-4.90;1.00;;;;;;5050788;28;19909;-76
2024/01/11 05:01:14;;;;;;;;;;;-4.90;1.00;;;;;;5039722;28;19913;-77
2024/01/11 05:03:45;;;;;;;;;;;-4.80;1.00;;;;;;5054810;28;20002;-76
2024/01/11 05:06:17;;;;;;;;;;;-4.80;1.00;;;;;;5053191;28;19916;-76
2024/01/11 05:08:46;;;;;;;;;;;-4.80;1.00;;;;;;5040999;28;19913;-76
2024/01/11 05:11:38;;;;;;;;;;;-4.80;1.00;;;;;;5045276;28;19915;-76
2024/01/11 05:14:08;;;;;;;;;;;-4.70;1.00;;;;;;5034440;28;19905;-76
2024/01/11 05:16:35;;;;;;;;;;;-4.60;1.00;;;;;;5050446;28;19994;-76
2024/01/11 05:19:00;;;;;;;;;;;-4.60;1.00;;;;;;5043365;28;19913;-76
2024/01/11 05:21:38;;;;;;;;;;;-4.60;1.00;;;;;;5034278;28;19916;-76
2024/01/11 05:24:26;;;;;;;;;;;-4.60;1.00;;;;;;5036172;28;20019;-76
2024/01/11 05:27:14;;;;;;;;;;;-4.60;1.00;;;;;;5042840;28;19921;-76
2024/01/11 05:29:50;;;;;;;;;;;-4.50;1.00;;;;;;5034910;28;19905;-77
2024/01/11 05:32:26;;;;;;;;;;;-4.50;1.00;;;;;;5047943;28;19905;-77
2024/01/11 05:34:51;;;;;;;;;;;-4.50;1.00;;;;;;5032558;28;19931;-76
2024/01/11 05:37:20;;;;;;;;;;;-4.50;1.00;;;;;;5039178;28;19905;-76
2024/01/11 05:40:02;;;;;;;;;;;-4.40;1.00;;;;;;5053437;28;19913;-77
2024/01/11 05:42:32;;;;;;;;;;;-4.40;1.00;;;;;;5045183;28;19909;-76
2024/01/11 05:45:02;;;;;;;;;;;-4.30;1.00;;;;;;5042179;28;19932;-76
2024/01/11 05:47:28;;;;;;;;;;;-4.30;1.00;;;;;;5047125;28;20268;-76
2024/01/11 05:49:53;;;;;;;;;;;-4.20;1.00;;;;;;5036600;28;19909;-76
2024/01/11 05:55:32;;;;;;;;;;;-4.20;1.00;;;;;;5033758;28;19951;-76
2024/01/11 05:57:58;;;;;;;;;;;-4.30;1.00;;;;;;5042099;28;19909;-76
2024/01/11 06:00:32;;;;;;;;;;;-4.20;1.00;;;;;;5038159;28;20020;-77
2024/01/11 06:02:58;;;;;;;;;;;-4.30;1.00;;;;;;5050482;28;19909;-77
2024/01/11 06:05:24;;;;;;;;;;;-4.20;1.00;;;;;;5052761;28;19904;-77
2024/01/11 06:08:08;;;;;;;;;;;-4.20;1.00;;;;;;5041164;28;19936;-77
2024/01/11 06:10:33;;;;;;;;;;;-4.20;1.00;;;;;;5033752;28;20020;-76
2024/01/11 06:13:20;;;;;;;;;;;-4.20;1.00;;;;;;5044973;28;20039;-76
2024/01/11 06:15:50;;;;;;;;;;;-4.30;1.00;;;;;;5033415;28;20047;-77
2024/01/11 06:18:44;;;;;;;;;;;-4.30;1.00;;;;;;5044997;28;19909;-77
2024/01/11 06:21:20;;;;;;;;;;;-4.30;1.00;;;;;;5047901;28;20328;-76
2024/01/11 06:24:03;;;;;;;;;;;-4.20;1.00;;;;;;5034424;28;19913;-76
2024/01/11 06:26:32;;;;;;;;;;;-4.30;1.00;;;;;;5039023;28;19934;-76
2024/01/11 06:29:20;;;;;;;;;;;-4.30;1.00;;;;;;5038677;28;19909;-76
2024/01/11 06:32:08;;;;;;;;;;;-4.20;1.00;;;;;;5042725;28;19909;-77
2024/01/11 06:34:41;;;;;;;;;;;-4.20;1.00;;;;;;5050285;28;19991;-75
2024/01/11 06:37:08;;;;;;;;;;;-4.30;1.00;;;;;;5039764;28;19909;-75
2024/01/11 06:39:34;;;;;;;;;;;-4.20;1.00;;;;;;5045202;28;19909;-75
2024/01/11 06:42:08;;;;;;;;;;;-4.20;1.00;;;;;;5042401;28;19905;-75
2024/01/11 06:44:50;;;;;;;;;;;-4.20;1.00;;;;;;5056069;28;19960;-75
2024/01/11 06:47:26;;;;;;;;;;;-4.20;1.00;;;;;;5051586;28;19913;-75
2024/01/11 06:50:03;;;;;;;;;;;-4.20;1.00;;;;;;5038364;28;19959;-76
2024/01/11 06:52:28;;;;;;;;;;;-4.20;1.00;;;;;;5062487;28;19909;-77
2024/01/11 06:55:02;;;;;;;;;;;-4.20;1.00;;;;;;5039253;28;19911;-77
2024/01/11 06:57:38;;;;;;;;;;;-4.20;1.00;;;;;;5046590;28;19956;-77
2024/01/11 07:00:21;;;;;;;;;;;-4.20;1.00;;;;;;5049509;28;19909;-78
2024/01/11 07:02:56;;;;;;;;;;;-4.30;1.00;;;;;;5040584;28;19916;-78
2024/01/11 07:05:50;;;;;;;;;;;-4.30;1.00;;;;;;5040475;28;19992;-83
2024/01/11 07:08:15;;;;;;;;;;;-4.30;1.00;;;;;;5051321;28;19913;-75
2024/01/11 07:10:42;;;;;;;;;;;-4.30;1.00;;;;;;5042369;28;19905;-74
2024/01/11 07:13:10;;;;;;;;;;;-4.40;1.00;;;;;;5036995;28;19908;-75
2024/01/11 07:15:35;;;;;;;;;;;-4.40;1.00;;;;;;5048721;28;19905;-75
2024/01/11 07:18:01;;;;;;;;;;;-4.40;1.00;;;;;;5049792;28;19916;-75
2024/01/11 07:20:38;;;;;;;;;;;-4.40;1.00;;;;;;5041490;28;19952;-78
2024/01/11 07:23:04;;;;;;;;;;;-4.40;1.00;;;;;;5037173;28;20035;-77
2024/01/11 07:25:30;;;;;;;;;;;-4.40;1.00;;;;;;5028017;28;20032;-77
2024/01/11 07:27:55;;;;;;;;;;;-4.40;1.00;;;;;;5045302;28;20316;-77
2024/01/11 07:30:26;;;;;;;;;;;-4.40;1.00;;;;;;5051935;28;20007;-77
2024/01/11 07:33:04;;;;;;;;;;;-4.40;1.00;;;;;;5053375;28;19917;-77
2024/01/11 07:35:38;;;;;;;;;;;-4.40;1.00;;;;;;5044036;28;19909;-74
2024/01/11 07:38:04;;;;;;;;;;;-4.40;1.00;;;;;;5050880;28;19917;-74
2024/01/11 07:40:29;;;;;;;;;;;-4.40;1.00;;;;;;5044405;28;20018;-74
2024/01/11 07:42:55;;;;;;;;;;;-4.40;1.00;;;;;;5045975;28;19916;-75
2024/01/11 07:45:21;;;;;;;;;;;-4.40;1.00;;;;;;5055249;28;20003;-75
2024/01/11 07:47:46;;;;;;;;;;;-4.40;1.00;;;;;;5045721;28;19909;-75
2024/01/11 07:50:12;;;;;;;;;;;-4.40;1.00;;;;;;5048540;28;19984;-74
2024/01/11 07:52:39;;;;;;;;;;;-4.30;1.00;;;;;;5043197;28;20328;-74
2024/01/11 07:55:08;;;;;;;;;;;-4.30;1.00;;;;;;5044566;28;19962;-78
2024/01/11 07:57:51;;;;;;;;;;;-4.20;1.00;;;;;;5050215;28;19905;-74
2024/01/11 08:00:26;;;;;;;;;;;-4.40;1.00;;;;;;5054568;28;19905;-74
2024/01/11 08:03:08;;;;;;;;;;;-4.20;1.00;;;;;;5045911;28;20306;-74
2024/01/11 08:05:38;;;;;;;;;;;-4.20;1.00;;;;;;5048990;28;19905;-75
2024/01/11 08:08:08;;;;;;;;;;;-4.20;1.00;;;;;;5053773;28;19912;-74
2024/01/11 08:10:38;;;;;;;;;;;-4.10;1.00;;;;;;5043902;28;19999;-75
2024/01/11 08:13:04;;;;;;;;;;;;;;;;;;5054732;28;19942;-74
2024/01/11 08:15:32;;;;;;;;;;;-4.10;1.00;;;;;;5053148;28;19909;-74
2024/01/11 08:18:08;;;;;;;;;;;-4.00;1.00;;;;;;5054636;28;20471;-74
2024/01/11 08:20:34;;;;;;;;;;;-4.00;1.00;;;;;;5050124;28;20322;-77
2024/01/11 08:23:14;;;;;;;;;;;;;;;;;;5043063;28;19912;-77
2024/01/11 08:25:44;;;;;;;;;;;-3.90;1.00;;;;;;5039736;28;19920;-78
2024/01/11 08:28:38;;;;;;;;;;;-3.90;1.00;;;;;;5048365;28;19909;-77
2024/01/11 08:31:08;;;;;;;;;;;;;;;;;;5044753;28;19962;-78
2024/01/11 08:34:02;;;;;;;;;;;-3.80;1.00;;;;;;5047618;28;19909;-78
2024/01/11 08:36:38;;;;;;;;;;;-3.80;1.00;;;;;;5050956;28;19913;-78
2024/01/11 08:39:08;;;;;;;;;;;-3.80;1.00;;;;;;5048906;28;20376;-84
2024/01/11 08:41:43;;;;;;;;;;;-3.70;1.00;;;;;;5045225;28;20344;-78
2024/01/11 08:44:32;;;;;;;;;;;-3.70;1.00;;;;;;5042979;28;19916;-77
2024/01/11 08:47:09;;;;;;;;;;;-3.60;1.00;;;;;;5044965;28;19924;-77
2024/01/11 08:49:56;;;;;;;;;;;-3.60;1.00;;;;;;5049117;28;20276;-79
2024/01/11 08:52:39;;;;;;;;;;;-3.40;1.00;;;;;;5046415;28;19916;-79
2024/01/11 08:55:14;;;;;;;;;;;-3.30;1.00;;;;;;5048757;28;19909;-79
2024/01/11 08:57:44;;;;;;;;;;;-3.30;1.00;;;;;;5041701;28;19932;-81
2024/01/11 09:00:17;;;;;;;;;;;-3.10;1.00;;;;;;5046216;28;20000;-78
2024/01/11 09:02:43;;;;;;;;;;;-3.10;1.00;;;;;;5037882;28;20406;-78
2024/01/11 09:08:20;;;;;;;;;;;-3.00;1.00;;;;;;5047593;28;19916;-75
2024/01/11 09:10:58;;;;;;;;;;;-2.90;1.00;;;;;;5050022;28;20388;-77
2024/01/11 09:13:27;;;;;;;;;;;-2.70;1.00;;;;;;5033624;28;19955;-77
2024/01/11 09:15:56;;;;;;;;;;;;;;;;;;5046121;28;19909;-81
2024/01/11 09:18:38;;;;;;;;;;;-2.50;1.00;;;;;;5051784;28;19911;-76
2024/01/11 09:21:14;;;;;;;;;;;-2.50;1.00;;;;;;5050842;28;19913;-80
2024/01/11 09:23:56;;;;;;;;;;;-2.40;1.00;;;;;;5051391;28;19915;-79
2024/01/11 09:26:26;;;;;;;;;;;-2.30;1.00;;;;;;5038198;28;19909;-77
2024/01/11 09:28:52;;;;;;;;;;;-2.30;1.00;;;;;;5053059;28;19915;-76
2024/01/11 09:31:20;;;;;;;;;;;-2.20;1.00;;;;;;5047508;28;19908;-76
2024/01/11 09:33:57;;;;;;;;;;;-2.10;1.00;;;;;;5051475;28;19931;-76
2024/01/11 09:36:33;;;;;;;;;;;-2.00;1.00;;;;;;5043399;28;19912;-76
2024/01/11 09:39:14;;;;;;;;;;;-1.90;1.00;;;;;;5048355;28;19943;-76
2024/01/11 09:41:43;;;;;;;;;;;-1.80;1.00;;;;;;5043445;28;19905;-76
2024/01/11 09:44:32;;;;;;;;;;;-1.70;1.00;;;;;;5051497;28;20352;-76
2024/01/11 09:47:03;;;;;;;;;;;-1.70;1.00;;;;;;5047175;28;19912;-76
2024/01/11 09:49:30;;;;;;;;;;;-1.60;1.00;;;;;;5046294;28;20371;-74
2024/01/11 09:52:03;;;;;;;;;;;-1.60;1.00;;;;;;5048278;28;20257;-76
2024/01/11 09:54:32;;;;;;;;;;;-1.50;1.00;;;;;;5044975;28;19904;-79
2024/01/11 09:56:59;;;;;;;;;;;-1.40;1.00;;;;;;5050774;28;19905;-78
2024/01/11 10:02:32;;;;;;;;;;;-1.30;1.00;;;;;;5050065;28;20383;-76
2024/01/11 10:05:08;;;;;;;;;;;-1.20;1.00;;;;;;5048320;28;19916;-80
2024/01/11 10:07:34;;;;;;;;;;;-1.10;1.00;;;;;;5045091;28;19916;-78
2024/01/11 10:10:08;;;;;;;;;;;-1.10;1.00;;;;;;5038946;28;19905;-78
2024/01/11 10:12:38;;;;;;;;;;;-1.00;1.00;;;;;;5057099;28;19904;-79
2024/01/11 10:15:23;;;;;;;;;;;-0.90;1.00;;;;;;5045096;28;20372;-77
2024/01/11 10:17:49;;;;;;;;;;;-0.90;1.00;;;;;;5050853;28;20322;-77
2024/01/11 10:20:29;;;;;;;;;;;-0.90;1.00;;;;;;5053415;28;19913;-79
2024/01/11 10:23:14;;;;;;;;;;;-0.80;1.00;;;;;;5053444;28;19966;-77
2024/01/11 10:26:14;;;;;;;;;;;-0.80;1.00;;;;;;5043130;28;19909;-79
2024/01/11 10:28:40;;;;;;;;;;;-0.70;1.00;;;;;;5044800;28;19913;-78
2024/01/11 10:37:11;;;;;;;;;;;-0.60;1.00;;;;;;5046757;28;19915;-79
2024/01/11 10:39:44;;;;;;;;;;;-0.50;1.00;;;;;;5048949;28;19908;-77
2024/01/11 10:42:11;;;;;;;;;;;-0.40;1.00;;;;;;5048585;28;20396;-78
2024/01/11 10:44:46;;;;;;;;;;;-0.30;1.00;;;;;;5053298;28;19905;-79
2024/01/11 10:47:16;;;;;;;;;;;-0.20;1.00;;;;;;5048927;28;19916;-77
2024/01/11 10:49:51;;;;;;;;;;;-0.10;1.00;;;;;;5050092;28;19908;-77
2024/01/11 10:52:22;;;;;;;;;;;-0.10;1.00;;;;;;5055071;28;20375;-77
2024/01/11 10:57:51;;;;;;;;;;;0.10;1.00;;;;;;5050290;28;19947;-78
2024/01/11 11:00:18;;;;;;;;;;;0.10;1.00;;;;;;5055175;28;19936;-77
2024/01/11 11:02:45;;;;;;;;;;;0.20;1.00;;;;;;5048872;28;20368;-76
2024/01/11 11:05:15;;;;;;;;;;;0.30;1.00;;;;;;5056113;28;19999;-76
2024/01/11 11:07:41;;;;;;;;;;;0.30;1.00;;;;;;5049161;28;19923;-79
2024/01/11 11:10:38;;;;;;;;;;;0.30;1.00;;;;;;5045135;28;19904;-83
2024/01/11 11:13:15;;;;;;;;;;;0.30;1.00;;;;;;5046949;28;19912;-81
2024/01/11 11:15:48;;;;;;;;;;;0.40;1.00;;;;;;5046665;28;19982;-78
2024/01/11 11:18:26;;;;;;;;;;;0.50;1.00;;;;;;5046978;28;20007;-79
2024/01/11 11:21:20;;;;;;;;;;;0.70;1.00;;;;;;5036032;28;19913;-76
2024/01/11 11:24:03;;;;;;;;;;;0.70;1.00;;;;;;5040528;28;19913;-74
2024/01/11 11:26:32;;;;;;;;;;;0.80;1.00;;;;;;5037254;28;19905;-76
2024/01/11 11:29:17;;;;;;;;;;;0.90;1.00;;;;;;5044707;28;19938;-77
2024/01/11 11:31:45;;;;;;;;;;;0.90;1.00;;;;;;5046207;28;19917;-82
2024/01/11 11:34:14;;;;;;;;;;;0.90;1.00;;;;;;5039648;28;19952;-75
2024/01/11 11:36:42;;;;;;;;;;;1.10;1.00;;;;;;5049455;28;20036;-76
2024/01/11 11:39:11;;;;;;;;;;;1.00;1.00;;;;;;5044168;28;20000;-75
2024/01/11 11:41:39;;;;;;;;;;;1.10;1.00;;;;;;5046061;28;19961;-75
2024/01/11 11:44:12;;;;;;;;;;;1.20;1.00;;;;;;5035857;28;19905;-76
2024/01/11 11:46:38;;;;;;;;;;;1.30;1.00;;;;;;5035663;28;19917;-77
2024/01/11 11:49:04;;;;;;;;;;;1.30;1.00;;;;;;5046555;28;20299;-76
2024/01/11 11:51:29;;;;;;;;;;;1.40;1.00;;;;;;5041514;28;19935;-75
2024/01/11 11:53:57;;;;;;;;;;;1.50;1.00;;;;;;5046157;28;19905;-76
2024/01/11 11:56:26;;;;;;;;;;;1.50;1.00;;;;;;5050366;28;19915;-76
2024/01/11 11:59:14;;;;;;;;;;;1.50;1.00;;;;;;5044758;28;19920;-75
2024/01/11 12:01:45;;;;;;;;;;;1.50;1.00;;;;;;5061499;28;19908;-76
2024/01/11 12:04:21;;;;;;;;;;;1.60;1.00;;;;;;5052826;28;19908;-76
2024/01/11 12:06:57;;;;;;;;;;;1.60;1.00;;;;;;5041947;28;19909;-76
2024/01/11 12:12:34;;;;;;;;;;;1.90;1.00;;;;;;5039843;28;19916;-77
2024/01/11 12:15:00;;;;;;;;;;;1.90;1.00;;;;;;5037988;28;19905;-77
2024/01/11 12:17:26;;;;;;;;;;;1.90;1.00;;;;;;5049882;28;19942;-77
2024/01/11 12:19:52;;;;;;;;;;;1.90;1.00;;;;;;5040179;28;19913;-76
2024/01/11 12:22:32;;;;;;;;;;;2.00;1.00;;;;;;5058403;28;19932;-75
2024/01/11 12:25:02;;;;;;;;;;;2.00;1.00;;;;;;5036669;28;19909;-76
2024/01/11 12:27:28;;;;;;;;;;;2.00;1.00;;;;;;5055864;28;20328;-75
2024/01/11 12:29:56;;;;;;;;;;;2.00;1.00;;;;;;5053234;28;20003;-75
2024/01/11 12:32:26;;;;;;;;;;;2.10;1.00;;;;;;5054321;28;20335;-74
2024/01/11 12:34:53;;;;;;;;;;;2.20;1.00;;;;;;5042650;28;19975;-75
2024/01/11 12:37:38;;;;;;;;;;;2.20;1.00;;;;;;5064620;28;19904;-74
2024/01/11 12:40:12;;;;;;;;;;;2.30;1.00;;;;;;5044218;28;19908;-75
2024/01/11 12:42:37;;;;;;;;;;;2.20;1.00;;;;;;5042166;28;19984;-75
2024/01/11 12:45:20;;;;;;;;;;;2.30;1.00;;;;;;5041147;28;19940;-75
2024/01/11 12:47:50;;;;;;;;;;;2.30;1.00;;;;;;5043987;28;20356;-75
2024/01/11 12:50:16;;;;;;;;;;;2.30;1.00;;;;;;5040910;28;19905;-75
2024/01/11 12:52:41;;;;;;;;;;;2.40;1.00;;;;;;5040782;28;19958;-75
2024/01/11 12:55:18;;;;;;;;;;;2.40;1.00;;;;;;5046830;28;19908;-76
2024/01/11 12:57:44;;;;;;;;;;;2.50;1.00;;;;;;5041105;28;19943;-75
2024/01/11 13:00:16;;;;;;;;;;;2.50;1.00;;;;;;5033502;28;20344;-75
2024/01/11 13:02:45;;;;;;;;;;;2.60;1.00;;;;;;5041823;28;19992;-76
2024/01/11 13:05:20;;;;;;;;;;;2.60;1.00;;;;;;5047430;28;19930;-75
2024/01/11 13:07:50;;;;;;;;;;;2.60;1.00;;;;;;5033679;28;19909;-75
2024/01/11 13:10:27;;;;;;;;;;;2.60;1.00;;;;;;5042234;28;19915;-75
2024/01/11 13:12:56;;;;;;;;;;;2.60;1.00;;;;;;5036119;28;19905;-75
2024/01/11 13:15:26;;;;;;;;;;;2.70;1.00;;;;;;5051776;28;19905;-75
2024/01/11 13:18:02;;;;;;;;;;;2.70;1.00;;;;;;5052981;28;19984;-75
2024/01/11 13:20:32;;;;;;;;;;;2.80;1.00;;;;;;5037498;28;20442;-75
2024/01/11 13:23:14;;;;;;;;;;;2.90;1.00;;;;;;5035597;28;19909;-76
2024/01/11 13:25:44;;;;;;;;;;;2.90;1.00;;;;;;5040322;28;19912;-75
2024/01/11 13:28:15;;;;;;;;;;;2.90;1.00;;;;;;5037041;28;19939;-75
2024/01/11 13:30:45;;;;;;;;;;;3.00;1.00;;;;;;5045100;28;19959;-75
2024/01/11 13:33:11;;;;;;;;;;;3.00;1.00;;;;;;5043525;28;20004;-75
2024/01/11 13:35:50;;;;;;;;;;;3.00;1.00;;;;;;5037803;28;19936;-75
2024/01/11 13:38:16;;;;;;;;;;;3.10;1.00;;;;;;5040814;28;19911;-75
2024/01/11 13:40:43;;;;;;;;;;;3.10;1.00;;;;;;5047710;28;19905;-74
2024/01/11 13:43:14;;;;;;;;;;;3.20;1.00;;;;;;5034085;28;20299;-76
2024/01/11 13:45:40;;;;;;;;;;;3.20;1.00;;;;;;5040176;28;19908;-75
2024/01/11 13:48:08;;;;;;;;;;;3.20;1.00;;;;;;5038270;28;19962;-74
2024/01/11 13:50:44;;;;;;;;;;;3.20;1.00;;;;;;5040477;28;19905;-75
2024/01/11 13:53:10;;;;;;;;;;;3.20;1.00;;;;;;5044432;28;20312;-74
2024/01/11 13:55:51;;;;;;;;;;;3.20;1.00;;;;;;5043388;28;19909;-74
2024/01/11 13:58:26;;;;;;;;;;;3.20;1.00;;;;;;5060991;28;19909;-74
2024/01/11 14:00:52;;;;;;;;;;;3.10;1.00;;;;;;5040734;28;19905;-74
2024/01/11 14:03:44;;;;;;;;;;;3.10;1.00;;;;;;5056484;28;19909;-75
2024/01/11 14:06:14;;;;;;;;;;;3.10;1.00;;;;;;5036381;28;19988;-74
2024/01/11 14:08:44;;;;;;;;;;;3.10;1.00;;;;;;5052809;28;19916;-73
2024/01/11 14:11:10;;;;;;;;;;;3.10;1.00;;;;;;5051757;28;19911;-74
2024/01/11 14:13:38;;;;;;;;;;;3.10;1.00;;;;;;5038993;28;20371;-76
2024/01/11 14:16:05;;;;;;;;;;;3.10;1.00;;;;;;5036067;28;19945;-76
2024/01/11 14:18:44;;;;;;;;;;;3.10;1.00;;;;;;5035630;28;19904;-76
2024/01/11 14:21:14;;;;;;;;;;;3.10;1.00;;;;;;5037718;28;19983;-76
2024/01/11 14:23:51;;;;;;;;;;;3.10;1.00;;;;;;5048604;28;19919;-76
2024/01/11 14:29:20;;;;;;;;;;;3.10;1.00;;;;;;5033351;28;19920;-76
2024/01/11 14:31:45;;;;;;;;;;;3.10;1.00;;;;;;5041819;28;19904;-76
2024/01/11 14:34:32;;;;;;;;;;;3.10;1.00;;;;;;5039727;28;19909;-76
2024/01/11 14:40:11;;;;;;;;;;;3.00;1.00;;;;;;5046648;28;19974;-75
2024/01/11 14:42:37;;;;;;;;;;;3.00;1.00;;;;;;5043290;28;19984;-75
2024/01/11 14:45:09;;;;;;;;;;;3.00;1.00;;;;;;5050073;28;19940;-75
2024/01/11 14:47:38;;;;;;;;;;;3.00;1.00;;;;;;5046510;28;19956;-75
2024/01/11 14:50:04;;;;;;;;;;;2.90;1.00;;;;;;5042702;28;20425;-75
2024/01/11 14:52:44;;;;;;;;;;;2.80;1.00;;;;;;5039496;28;19992;-77
2024/01/11 14:55:32;;;;;;;;;;;2.60;1.00;;;;;;5046641;28;19916;-80
2024/01/11 14:58:20;;;;;;;;;;;2.60;1.00;;;;;;5050480;28;19909;-79
2024/01/11 15:00:56;;;;;;;;;;;2.60;1.00;;;;;;5042510;28;19905;-79
2024/01/11 15:06:25;;;;;;;;;;;2.30;1.00;;;;;;5048160;28;19912;-78
2024/01/11 15:09:12;;;;;;;;;;;2.30;1.00;;;;;;5042779;28;19908;-78
2024/01/11 15:11:44;;;;;;;;;;;2.20;1.00;;;;;;5037655;28;19905;-77
2024/01/11 15:14:14;;;;;;;;;;;2.10;1.00;;;;;;5044407;28;19912;-77
2024/01/11 15:16:57;;;;;;;;;;;2.00;1.00;;;;;;5044518;28;19955;-77
2024/01/11 15:19:22;;;;;;;;;;;1.80;1.00;;;;;;5044128;28;20403;-77
2024/01/11 15:22:02;;;;;;;;;;;1.80;1.00;;;;;;5045088;28;19913;-77
2024/01/11 15:24:52;;;;;;;;;;;1.60;1.00;;;;;;5052060;28;20276;-76
2024/01/11 15:27:21;;;;;;;;;;;1.50;1.00;;;;;;5051753;28;19909;-74
2024/01/11 15:30:02;;;;;;;;;;;1.30;1.00;;;;;;5039532;28;19992;-75
2024/01/11 15:32:32;;;;;;;;;;;1.10;1.00;;;;;;5041968;28;19908;-75
2024/01/11 15:35:03;;;;;;;;;;;1.00;1.00;;;;;;5053209;28;19955;-75
2024/01/11 15:37:50;;;;;;;;;;;0.90;1.00;;;;;;5041291;28;19976;-75